Αρχική σελίδα
METAR-TAF:

METAR-TAF

Αεροδρόμια :

Νιαμέυ, Νίγηρας

γεωγραφικό πλάτος: 13-29N, γεωγραφικό μήκος: 002-10E, υψόμετρο: 223 μ

Παρών καιρός

Η αναφορά έγινε 16 λεπτά πριν, στις 01:00 UTC
Άνεμος 2 kt από Ν/ΝΔ
Θερμοκρασία 27°C
Υγρασία 42%
Πίεση 1009 hPa
Ορατότητα: 8000 μ

METAR: DRRN 220100Z 20002KT 8000 NSC 27/13 Q1009 NOSIG

Χρόνος: 02:16 (01:16 UTC)

Πρόγνωση Καιρού

Η αναφορά έγινε 2 ώρες και 16 λεπτά πριν, στις 23:00 UTC
Η πρόγνωση ισχύει από τις 22 στις 00 UTC έως τις 23 στις 06 UTC
Άνεμος 8 kt από Α/NA
Ορατότητα 10 χλμ και άνω
Δεν υπάρχουν νέφη με βάση κάτω από τα 1500 μ. και δεν υπάρχουν νέφη σωρειτομελανίτες.
Πιθανότητα 40%
από 22 στις 06 UTC έως τις 22 στις 10 UTC
Ορατότητα: 4000 μ
εκτεταμένη σκόνη

TAF: DRRN 212300Z 2200/2306 12008KT CAVOK PROB40 2206/2210 4000 DU

Μετεωρολογικές αναφορές και προγνώσεις για περισσότερα από 4000 αεροδρόμια (δελτία METAR και TAF).

Οι διαθέσιμοι σταθμοί απεικονίζονται στο χάρτη με κίτρινες και κόκκινες κουκκίδες.

Μετακινήστε το ποντίκι πάνω από τις κουκκίδες για να δείτε το όνομα του σταθμού.

Στη συνέχεια, κάντε κλικ για να δείτε τις μετεωρολογικές αναφορές και τις προγνώσεις καιρού.

Για να αλλάξετε το χάρτη: κάντε κλικ στα πράσινα κουμπιά με τον μαύρο σταυρό για να ζουμάρετε, στο πράσινο κουμπί με την παύλα για να αφαιρέσετε το ζουμ ή στα πράσινα βέλη για να αντιπαραβάλλετε χάρτες.


METAR-TAF: